createdAt,value
2022-09-28T00:01:56.795Z,2.03
2022-09-28T00:04:25.250Z,2.20
2022-09-28T00:06:55.051Z,2.20
2022-09-28T00:09:23.439Z,2.20
2022-09-28T00:11:52.572Z,1.60
2022-09-28T00:14:21.359Z,2.30
2022-09-28T00:16:49.801Z,2.10
2022-09-28T00:19:18.398Z,2.30
2022-09-28T00:21:46.778Z,1.70
2022-09-28T00:24:17.194Z,2.20
2022-09-28T00:26:48.627Z,2.20
2022-09-28T00:29:22.091Z,2.37
2022-09-28T00:31:54.284Z,2.73
2022-09-28T00:34:22.733Z,2.30
2022-09-28T00:36:51.095Z,2.43
2022-09-28T00:39:21.478Z,2.10
2022-09-28T00:41:50.464Z,2.07
2022-09-28T00:44:43.656Z,2.20
2022-09-28T00:47:51.587Z,2.63
2022-09-28T00:50:26.148Z,2.17
2022-09-28T00:52:59.072Z,2.63
2022-09-28T00:55:37.237Z,2.33
2022-09-28T00:58:10.337Z,2.30
2022-09-28T01:00:40.665Z,2.70
2022-09-28T01:03:10.081Z,2.80
2022-09-28T01:05:41.002Z,2.27
2022-09-28T01:08:11.320Z,2.33
2022-09-28T01:10:43.613Z,3.10
2022-09-28T01:13:12.894Z,3.07
2022-09-28T01:15:50.742Z,2.50
2022-09-28T01:18:29.496Z,2.70
2022-09-28T01:21:03.028Z,3.00
2022-09-28T01:23:54.328Z,2.77
2022-09-28T01:27:17.831Z,3.00
2022-09-28T01:29:53.788Z,3.13
2022-09-28T01:32:37.757Z,2.50
2022-09-28T01:35:12.833Z,3.07
2022-09-28T01:37:48.031Z,3.00
2022-09-28T01:40:17.960Z,3.27
2022-09-28T01:42:55.530Z,3.10
2022-09-28T01:45:28.368Z,2.90
2022-09-28T01:48:02.408Z,3.80
2022-09-28T01:50:36.683Z,3.50
2022-09-28T01:53:14.710Z,3.60
2022-09-28T01:55:48.839Z,3.47
2022-09-28T01:58:26.480Z,4.10
2022-09-28T02:01:02.058Z,3.83
2022-09-28T02:03:36.647Z,3.63
2022-09-28T02:06:09.923Z,4.30
2022-09-28T02:08:42.452Z,3.70
2022-09-28T02:11:15.978Z,4.20
2022-09-28T02:13:51.055Z,3.67
2022-09-28T02:16:27.487Z,4.23
2022-09-28T02:18:56.605Z,4.60
2022-09-28T02:21:31.971Z,4.07
2022-09-28T02:24:06.885Z,4.50
2022-09-28T02:26:41.506Z,5.10
2022-09-28T02:29:11.366Z,3.83
2022-09-28T02:31:39.860Z,2.20
2022-09-28T02:34:08.694Z,2.30
2022-09-28T02:36:37.713Z,1.70
2022-09-28T02:39:06.746Z,1.20
2022-09-28T02:41:49.657Z,1.87
2022-09-28T02:44:45.866Z,1.13
2022-09-28T02:47:26.886Z,0.90
2022-09-28T02:50:14.232Z,1.20
2022-09-28T02:53:09.881Z,0.70
2022-09-28T02:55:56.895Z,0.60
2022-09-28T02:58:40.685Z,0.80
2022-09-28T03:01:24.556Z,0.90
2022-09-28T03:03:59.891Z,1.10
2022-09-28T03:06:33.977Z,0.70
2022-09-28T03:09:08.237Z,0.80
2022-09-28T03:11:44.841Z,0.60
2022-09-28T03:14:13.870Z,0.60
2022-09-28T03:16:56.291Z,0.50
2022-09-28T03:19:28.889Z,2.67
2022-09-28T03:21:57.303Z,0.83
2022-09-28T03:24:25.896Z,0.70
2022-09-28T03:26:54.613Z,1.17
2022-09-28T03:29:24.378Z,0.60
2022-09-28T03:32:00.615Z,0.70
2022-09-28T03:34:29.025Z,0.80
2022-09-28T03:36:57.719Z,0.70
2022-09-28T03:39:26.256Z,0.60
2022-09-28T03:41:54.634Z,0.60
2022-09-28T03:44:23.462Z,0.53
2022-09-28T03:46:52.072Z,0.63
2022-09-28T03:49:22.118Z,0.50
2022-09-28T03:51:51.331Z,1.00
2022-09-28T03:54:20.047Z,1.10
2022-09-28T03:56:48.419Z,1.10
2022-09-28T03:59:18.467Z,0.70
2022-09-28T04:01:46.994Z,0.90
2022-09-28T04:04:16.240Z,0.70
2022-09-28T04:06:46.210Z,0.90
2022-09-28T04:09:14.725Z,1.10
2022-09-28T04:12:02.722Z,1.30
2022-09-28T04:14:32.292Z,1.17
2022-09-28T04:17:00.709Z,0.90
2022-09-28T04:19:30.374Z,1.20
2022-09-28T04:22:10.034Z,0.93
2022-09-28T04:24:40.201Z,1.17
2022-09-28T04:27:22.400Z,1.40
2022-09-28T04:29:50.781Z,1.37
2022-09-28T04:32:19.886Z,1.33
2022-09-28T04:34:48.318Z,1.20
2022-09-28T04:37:21.093Z,1.63
2022-09-28T04:39:49.584Z,1.57
2022-09-28T04:42:20.547Z,3.00
2022-09-28T04:44:50.959Z,2.20
2022-09-28T04:47:19.301Z,1.30
2022-09-28T04:50:13.733Z,1.50
2022-09-28T04:53:03.539Z,1.10
2022-09-28T04:55:32.646Z,1.03
2022-09-28T04:58:02.447Z,1.20
2022-09-28T05:00:33.791Z,1.37
2022-09-28T05:03:16.434Z,1.20
2022-09-28T05:06:16.209Z,1.30
2022-09-28T05:08:47.934Z,1.37
2022-09-28T05:11:18.367Z,1.10
2022-09-28T05:13:48.530Z,1.50
2022-09-28T05:16:20.385Z,1.60
2022-09-28T05:19:27.440Z,3.70
2022-09-28T05:22:04.420Z,2.70
2022-09-28T05:24:39.547Z,2.37
2022-09-28T05:27:08.164Z,3.47
2022-09-28T05:29:36.578Z,2.17
2022-09-28T05:32:23.669Z,1.70
2022-09-28T05:35:13.013Z,2.70
2022-09-28T05:37:48.201Z,2.30
2022-09-28T05:40:19.011Z,2.73
2022-09-28T05:42:47.431Z,1.60
2022-09-28T05:45:16.758Z,2.00
2022-09-28T05:47:47.223Z,2.60
2022-09-28T05:50:19.795Z,3.10
2022-09-28T05:52:50.275Z,2.83
2022-09-28T05:55:20.233Z,2.97
2022-09-28T05:57:48.662Z,2.17
2022-09-28T06:00:17.094Z,1.37
2022-09-28T06:03:08.663Z,1.23
2022-09-28T06:05:39.390Z,1.30
2022-09-28T06:08:11.642Z,0.87
2022-09-28T06:10:45.764Z,4.50
2022-09-28T06:13:15.138Z,1.50
2022-09-28T06:15:46.375Z,2.20
2022-09-28T06:18:16.273Z,1.93
2022-09-28T06:21:05.961Z,1.90
2022-09-28T06:23:39.951Z,1.23
2022-09-28T06:26:10.435Z,1.30
2022-09-28T06:28:38.977Z,1.50
2022-09-28T06:31:08.088Z,1.87
2022-09-28T06:33:44.334Z,1.80
2022-09-28T06:36:13.418Z,1.63
2022-09-28T06:38:41.947Z,2.77
2022-09-28T06:41:13.086Z,2.43
2022-09-28T06:43:43.368Z,2.67
2022-09-28T06:46:34.063Z,2.47
2022-09-28T06:49:21.811Z,2.30
2022-09-28T06:52:13.152Z,2.20
2022-09-28T06:55:01.192Z,1.90
2022-09-28T06:58:01.677Z,1.47
2022-09-28T07:00:32.970Z,1.30
2022-09-28T07:03:02.883Z,1.10
2022-09-28T07:05:54.051Z,1.50
2022-09-28T07:09:01.861Z,2.50
2022-09-28T07:12:16.559Z,1.40
2022-09-28T07:14:58.333Z,1.67
2022-09-28T07:17:29.608Z,1.73
2022-09-28T07:20:11.637Z,1.00
2022-09-28T07:22:44.541Z,0.80
2022-09-28T07:25:19.364Z,1.40
2022-09-28T07:28:23.134Z,1.47
2022-09-28T07:31:29.911Z,0.80
2022-09-28T07:34:18.217Z,3.30
2022-09-28T07:36:59.681Z,3.13
2022-09-28T07:39:27.996Z,5.13
2022-09-28T07:41:59.792Z,2.30
2022-09-28T07:44:31.002Z,2.53
2022-09-28T07:47:02.108Z,1.40
2022-09-28T07:50:06.365Z,1.50
2022-09-28T07:53:01.172Z,1.10
2022-09-28T07:55:32.715Z,1.30
2022-09-28T07:58:25.656Z,1.63
2022-09-28T08:01:22.755Z,1.30
2022-09-28T08:03:56.410Z,1.37
2022-09-28T08:06:25.503Z,1.60
2022-09-28T08:08:56.358Z,1.77
2022-09-28T08:11:44.793Z,1.30
2022-09-28T08:14:24.747Z,1.30
2022-09-28T08:17:11.956Z,1.20
2022-09-28T08:20:11.107Z,1.53
2022-09-28T08:22:39.972Z,1.47
2022-09-28T08:25:09.655Z,1.67
2022-09-28T08:27:38.342Z,1.10
2022-09-28T08:30:09.110Z,0.80
2022-09-28T08:32:49.446Z,0.90
2022-09-28T08:35:37.571Z,1.70
2022-09-28T08:38:30.997Z,1.20
2022-09-28T08:41:24.616Z,2.50
2022-09-28T08:44:24.878Z,1.33
2022-09-28T08:47:40.288Z,0.97
2022-09-28T08:50:56.441Z,0.90
2022-09-28T08:53:53.555Z,1.13
2022-09-28T08:56:35.538Z,1.47
2022-09-28T08:59:11.053Z,1.60
2022-09-28T09:01:49.901Z,1.20
2022-09-28T09:04:19.443Z,1.37
2022-09-28T09:07:38.214Z,1.10
2022-09-28T09:10:36.569Z,3.13
2022-09-28T09:13:16.216Z,1.53
2022-09-28T09:15:54.115Z,1.40
2022-09-28T09:18:59.235Z,1.40
2022-09-28T09:21:48.755Z,1.30
2022-09-28T09:24:27.897Z,3.20
2022-09-28T09:27:07.626Z,1.83
2022-09-28T09:30:02.051Z,0.90
2022-09-28T09:32:53.430Z,0.93
2022-09-28T09:36:08.642Z,1.30
2022-09-28T09:39:18.241Z,1.40
2022-09-28T09:42:37.547Z,2.50
2022-09-28T09:45:57.131Z,1.60
2022-09-28T09:48:41.396Z,1.20
2022-09-28T09:51:21.057Z,1.43
2022-09-28T09:53:55.491Z,1.20
2022-09-28T09:56:34.637Z,1.23
2022-09-28T09:59:24.071Z,1.07
2022-09-28T10:02:27.392Z,0.67
2022-09-28T10:05:27.824Z,1.10
2022-09-28T10:08:04.782Z,0.80
2022-09-28T10:10:36.955Z,2.37
2022-09-28T10:13:11.324Z,0.80
2022-09-28T10:15:43.462Z,0.90
2022-09-28T10:18:22.429Z,0.97
2022-09-28T10:21:14.873Z,0.80
2022-09-28T10:23:58.857Z,1.30
2022-09-28T10:26:35.423Z,1.10
2022-09-28T10:29:14.898Z,0.80
2022-09-28T10:31:49.179Z,2.53
2022-09-28T10:34:31.456Z,1.40
2022-09-28T10:37:11.881Z,1.63
2022-09-28T10:40:43.559Z,1.40
2022-09-28T10:43:23.726Z,0.90
2022-09-28T10:46:04.860Z,0.67
2022-09-28T10:48:50.246Z,0.80
2022-09-28T10:51:19.231Z,0.80
2022-09-28T10:54:04.366Z,6.80
2022-09-28T10:56:48.683Z,2.80
2022-09-28T10:59:38.546Z,1.07
2022-09-28T11:02:36.704Z,2.00
2022-09-28T11:05:27.949Z,0.80
2022-09-28T11:08:01.608Z,1.03
2022-09-28T11:10:37.569Z,1.00
2022-09-28T11:13:13.708Z,1.00
2022-09-28T11:15:46.457Z,1.03
2022-09-28T11:18:32.331Z,1.00
2022-09-28T11:21:15.741Z,1.07
2022-09-28T11:24:05.863Z,1.50
2022-09-28T11:26:42.665Z,0.90
2022-09-28T11:29:26.834Z,1.07
2022-09-28T11:32:18.721Z,1.10
2022-09-28T11:35:06.313Z,0.80
2022-09-28T11:38:05.238Z,1.40
2022-09-28T11:41:28.765Z,1.30
2022-09-28T11:44:37.723Z,1.50
2022-09-28T11:47:47.010Z,2.00
2022-09-28T11:50:28.063Z,1.43
2022-09-28T11:53:13.197Z,1.80
2022-09-28T11:55:47.986Z,1.30
2022-09-28T11:58:25.200Z,1.60
2022-09-28T12:01:00.685Z,1.87
2022-09-28T12:03:44.864Z,1.40
2022-09-28T12:06:19.203Z,1.20
2022-09-28T12:08:56.928Z,0.90
2022-09-28T12:11:48.189Z,1.30
2022-09-28T12:14:30.761Z,3.00
2022-09-28T12:17:07.908Z,2.00
2022-09-28T12:19:43.837Z,1.57
2022-09-28T12:22:19.586Z,2.20
2022-09-28T12:24:52.903Z,0.93
2022-09-28T12:27:31.071Z,1.60
2022-09-28T12:30:06.352Z,1.27
2022-09-28T12:32:40.485Z,1.93
2022-09-28T12:35:17.243Z,1.20
2022-09-28T12:38:23.049Z,1.40
2022-09-28T12:40:58.609Z,2.03
2022-09-28T12:43:46.432Z,1.40
2022-09-28T12:46:30.139Z,0.70
2022-09-28T12:52:29.630Z,1.40
2022-09-28T12:55:26.895Z,1.47
2022-09-28T12:58:17.205Z,1.10
2022-09-28T13:00:59.800Z,1.27
2022-09-28T13:04:17.067Z,0.90
2022-09-28T13:07:04.516Z,1.00
2022-09-28T13:09:45.383Z,0.60
2022-09-28T13:12:27.330Z,1.17
2022-09-28T13:15:23.649Z,1.60
2022-09-28T13:18:02.973Z,0.90
2022-09-28T13:20:43.394Z,1.03
2022-09-28T13:23:20.921Z,1.20
2022-09-28T13:25:56.685Z,1.30
2022-09-28T13:28:27.775Z,1.60
2022-09-28T13:33:35.896Z,1.40
2022-09-28T13:36:25.557Z,2.00
2022-09-28T13:38:55.291Z,1.97
2022-09-28T13:41:29.754Z,1.07
2022-09-28T13:44:47.146Z,1.67
2022-09-28T13:47:35.101Z,2.50
2022-09-28T13:50:22.259Z,2.40
2022-09-28T13:53:02.283Z,1.70
2022-09-28T13:55:37.533Z,2.33
2022-09-28T13:58:17.686Z,1.13
2022-09-28T14:00:50.576Z,1.20
2022-09-28T14:03:45.232Z,1.00
2022-09-28T14:06:27.018Z,1.10
2022-09-28T14:09:44.395Z,0.80
2022-09-28T14:12:48.247Z,0.90
2022-09-28T14:15:43.801Z,1.20
2022-09-28T14:18:29.831Z,0.80
2022-09-28T14:21:55.569Z,0.90
2022-09-28T14:24:38.036Z,0.60
2022-09-28T14:27:41.773Z,0.80
2022-09-28T14:30:23.595Z,1.07
2022-09-28T14:32:58.208Z,1.30
2022-09-28T14:35:34.442Z,0.67
2022-09-28T14:38:25.721Z,0.67
2022-09-28T14:41:17.680Z,0.70
2022-09-28T14:44:10.022Z,0.80
2022-09-28T14:46:45.468Z,0.60
2022-09-28T14:49:51.259Z,0.77
2022-09-28T14:52:40.698Z,1.80
2022-09-28T14:55:17.222Z,0.80
2022-09-28T14:57:45.910Z,1.73
2022-09-28T15:00:22.533Z,1.23
2022-09-28T15:02:52.896Z,1.03
2022-09-28T15:05:28.675Z,0.60
2022-09-28T15:07:58.617Z,0.93
2022-09-28T15:10:32.405Z,1.07
2022-09-28T15:13:05.599Z,0.90
2022-09-28T15:15:37.603Z,0.97
2022-09-28T15:18:36.643Z,0.80
2022-09-28T15:21:05.344Z,1.20
2022-09-28T15:23:40.591Z,1.40
2022-09-28T15:26:22.999Z,1.03
2022-09-28T15:28:51.534Z,4.73
2022-09-28T15:31:22.765Z,4.70
2022-09-28T15:34:08.644Z,1.37
2022-09-28T15:36:40.487Z,2.53
2022-09-28T15:39:15.607Z,2.77
2022-09-28T15:41:45.233Z,2.60
2022-09-28T15:44:30.201Z,1.30
2022-09-28T15:47:11.342Z,3.67
2022-09-28T15:49:45.327Z,7.03
2022-09-28T15:52:33.963Z,0.93
2022-09-28T15:55:07.219Z,1.27
2022-09-28T15:57:39.819Z,2.57
2022-09-28T16:00:26.953Z,7.30
2022-09-28T16:03:05.467Z,11.70
2022-09-28T16:05:42.988Z,2.90
2022-09-28T16:08:24.715Z,10.30
2022-09-28T16:11:10.950Z,7.97
2022-09-28T16:13:57.284Z,2.80
2022-09-28T16:16:30.830Z,2.87
2022-09-28T16:19:01.710Z,2.47
2022-09-28T16:21:44.209Z,2.70
2022-09-28T16:24:23.157Z,10.80
2022-09-28T16:27:00.035Z,4.20
2022-09-28T16:29:40.029Z,2.67
2022-09-28T16:32:41.790Z,2.80
2022-09-28T16:35:26.012Z,4.00
2022-09-28T16:38:10.692Z,2.73
2022-09-28T16:40:46.303Z,4.60
2022-09-28T16:43:26.964Z,3.80
2022-09-28T16:45:58.042Z,2.50
2022-09-28T16:48:28.461Z,2.60
2022-09-28T16:50:56.874Z,1.30
2022-09-28T16:53:43.975Z,2.57
2022-09-28T16:56:14.042Z,1.20
2022-09-28T16:58:44.215Z,1.30
2022-09-28T17:01:13.756Z,1.47
2022-09-28T17:03:46.658Z,1.30
2022-09-28T17:06:16.883Z,1.53
2022-09-28T17:08:45.663Z,1.63
2022-09-28T17:11:22.794Z,2.53
2022-09-28T17:13:56.895Z,1.80
2022-09-28T17:19:22.519Z,1.20
2022-09-28T17:21:52.249Z,1.50
2022-09-28T17:24:21.453Z,2.00
2022-09-28T17:26:52.569Z,2.13
2022-09-28T17:29:22.802Z,2.07
2022-09-28T17:31:51.479Z,2.30
2022-09-28T17:34:20.769Z,2.40
2022-09-28T17:36:49.628Z,1.97
2022-09-28T17:39:20.263Z,2.53
2022-09-28T17:41:48.823Z,1.50
2022-09-28T17:44:17.403Z,2.60
2022-09-28T17:46:49.585Z,2.70
2022-09-28T17:49:18.758Z,2.33
2022-09-28T17:51:47.288Z,3.00
2022-09-28T17:54:19.897Z,2.50
2022-09-28T17:56:48.812Z,3.03
2022-09-28T17:59:19.732Z,4.33
2022-09-28T18:01:49.531Z,3.10
2022-09-28T18:04:46.904Z,3.03
2022-09-28T18:07:06.923Z,2.90
2022-09-28T18:09:35.243Z,3.07
2022-09-28T18:12:06.601Z,2.67
2022-09-28T18:14:35.803Z,2.47
2022-09-28T18:17:05.752Z,3.33
2022-09-28T18:19:34.165Z,2.73
2022-09-28T18:22:02.710Z,2.70
2022-09-28T18:24:32.517Z,2.87
2022-09-28T18:27:01.159Z,3.00
2022-09-28T18:29:33.114Z,4.70
2022-09-28T18:32:03.123Z,3.60
2022-09-28T18:34:36.444Z,4.20
2022-09-28T18:37:05.555Z,4.13
2022-09-28T18:39:33.931Z,2.90
2022-09-28T18:42:02.440Z,2.90
2022-09-28T18:44:30.929Z,3.33
2022-09-28T18:47:02.333Z,6.30
2022-09-28T18:49:33.662Z,23.47
2022-09-28T18:52:02.883Z,5.23
2022-09-28T18:54:31.225Z,3.20
2022-09-28T18:56:59.574Z,3.43
2022-09-28T18:59:28.373Z,3.97
2022-09-28T19:01:56.973Z,2.83
2022-09-28T19:04:25.631Z,3.53
2022-09-28T19:06:55.446Z,3.27
2022-09-28T19:09:26.491Z,4.57
2022-09-28T19:11:55.065Z,3.63
2022-09-28T19:14:23.386Z,5.40
2022-09-28T19:16:51.779Z,4.03
2022-09-28T19:19:21.722Z,3.90
2022-09-28T19:21:50.266Z,4.17
2022-09-28T19:24:20.957Z,3.77
2022-09-28T19:26:50.817Z,3.63
2022-09-28T19:29:19.295Z,3.73
2022-09-28T19:31:47.984Z,3.60
2022-09-28T19:34:16.812Z,3.37
2022-09-28T19:36:45.561Z,2.93
2022-09-28T19:39:15.986Z,4.27
2022-09-28T19:41:49.578Z,3.50
2022-09-28T19:44:25.141Z,3.80
2022-09-28T19:46:55.522Z,4.73
2022-09-28T19:49:25.572Z,3.70
2022-09-28T19:52:12.171Z,4.00
2022-09-28T19:54:43.966Z,9.40
2022-09-28T19:57:16.036Z,7.30
2022-09-28T19:59:47.489Z,5.47
2022-09-28T20:02:18.086Z,4.00
2022-09-28T20:04:46.461Z,4.47
2022-09-28T20:07:15.396Z,6.20
2022-09-28T20:09:43.890Z,4.37
2022-09-28T20:12:13.697Z,3.80
2022-09-28T20:14:42.243Z,5.17
2022-09-28T20:17:11.583Z,3.67
2022-09-28T20:19:40.027Z,5.97
2022-09-28T20:22:08.571Z,7.57
2022-09-28T20:24:37.182Z,5.50
2022-09-28T20:27:05.889Z,8.43
2022-09-28T20:29:35.889Z,7.27
2022-09-28T20:32:04.882Z,5.27
2022-09-28T20:34:34.475Z,4.97
2022-09-28T20:37:03.086Z,6.90
2022-09-28T20:39:31.670Z,5.87
2022-09-28T20:42:00.210Z,3.40
2022-09-28T20:44:28.715Z,4.50
2022-09-28T20:46:58.823Z,3.47
2022-09-28T20:49:28.161Z,3.80
2022-09-28T20:51:56.539Z,2.97
2022-09-28T20:54:25.563Z,3.67
2022-09-28T20:56:53.941Z,3.23
2022-09-28T20:59:25.958Z,4.07
2022-09-28T21:01:54.440Z,4.37
2022-09-28T21:04:24.275Z,3.87
2022-09-28T21:06:53.233Z,4.00
2022-09-28T21:09:21.813Z,3.30
2022-09-28T21:11:50.339Z,3.63
2022-09-28T21:14:19.038Z,3.27
2022-09-28T21:16:47.774Z,3.40
2022-09-28T21:19:16.138Z,3.23
2022-09-28T21:21:45.968Z,4.33
2022-09-28T21:24:14.376Z,3.00
2022-09-28T21:26:42.831Z,3.37
2022-09-28T21:29:14.993Z,3.13
2022-09-28T21:31:46.829Z,2.80
2022-09-28T21:34:19.307Z,3.30
2022-09-28T21:36:51.341Z,4.10
2022-09-28T21:39:20.476Z,3.20
2022-09-28T21:41:49.103Z,3.60
2022-09-28T21:44:17.864Z,2.73
2022-09-28T21:46:46.337Z,3.30
2022-09-28T21:49:15.020Z,3.80
2022-09-28T21:51:43.693Z,3.63
2022-09-28T21:54:15.064Z,3.50
2022-09-28T21:56:43.389Z,4.20
2022-09-28T21:59:11.726Z,4.20
2022-09-28T22:01:42.750Z,3.90
2022-09-28T22:04:12.048Z,3.73
2022-09-28T22:06:40.836Z,4.17
2022-09-28T22:09:09.372Z,3.13
2022-09-28T22:11:39.043Z,3.77
2022-09-28T22:14:07.361Z,4.10
2022-09-28T22:16:35.688Z,3.40
2022-09-28T22:19:04.192Z,3.73
2022-09-28T22:21:34.923Z,3.40
2022-09-28T22:24:06.528Z,3.70
2022-09-28T22:26:39.452Z,3.83
2022-09-28T22:29:10.204Z,3.73
2022-09-28T22:31:40.700Z,3.70
2022-09-28T22:34:10.211Z,3.30
2022-09-28T22:36:38.751Z,3.80
2022-09-28T22:39:07.218Z,3.60
2022-09-28T22:41:35.768Z,3.60
2022-09-28T22:44:05.706Z,3.90
2022-09-28T22:46:34.118Z,2.93
2022-09-28T22:49:02.884Z,3.30
2022-09-28T22:51:31.921Z,3.30
2022-09-28T22:54:01.278Z,3.53
2022-09-28T22:56:30.305Z,3.57
2022-09-28T22:58:59.146Z,3.60
2022-09-28T23:01:31.155Z,4.53
2022-09-28T23:04:00.922Z,3.77
2022-09-28T23:06:30.788Z,3.40
2022-09-28T23:08:59.275Z,3.60
2022-09-28T23:11:28.501Z,4.50
2022-09-28T23:13:58.843Z,3.40
2022-09-28T23:16:30.146Z,3.53
2022-09-28T23:18:58.943Z,3.90
2022-09-28T23:21:29.232Z,3.40
2022-09-28T23:24:01.012Z,4.43
2022-09-28T23:26:31.636Z,3.73
2022-09-28T23:29:00.940Z,4.00
2022-09-28T23:31:32.521Z,4.53
2022-09-28T23:34:02.827Z,4.40
2022-09-28T23:36:32.047Z,3.80
2022-09-28T23:39:00.589Z,4.50
2022-09-28T23:41:29.147Z,4.50
2022-09-28T23:43:57.531Z,3.60
2022-09-28T23:46:26.040Z,3.77
2022-09-28T23:48:55.809Z,4.23
2022-09-28T23:51:24.211Z,3.87
2022-09-28T23:53:52.575Z,6.47
2022-09-28T23:56:21.287Z,4.10
2022-09-28T23:58:49.638Z,4.10
